Sweetwater, Florida
Current Conditions -  °F | °C
As of 10:53 PM on Wednesday 22 Oct 2014 (Local Time) from KMIA Reporting Station
Overcast Overcast  
Wind Chill: 76°   Ceiling: 13000
Heat Index: 76°   Visibility: 10mi
Dew Point: 72°   Wind: 0mph
Humidity: 87%   Direction: NA
Pressure: 29.94"   Gusts: NA
Location:  25.76°N, 80.37°W
Report Text: KMIA 230253Z 00000KT 10SM FEW014 OVC130 24/22 A2994 RMK AO2 RAE07B38E48 SLP139 P0000 60001 T02440222 58001
Loading
Personal Weather Stations






























Interactive Weather Map
Tropical Storm Tracking
New forecast layout! Learn more

10-Day Weather Forecast

Advertisements
Track Severe Weather on mobile